sensor_id;sensor_type;location;lat;lon;timestamp;P1;durP1;ratioP1;P2;durP2;ratioP2
12784;SDS011;6456;42.680;23.260;2022-11-04T00:01:50;20.20;;;11.30;;
12784;SDS011;6456;42.680;23.260;2022-11-04T00:04:20;16.37;;;11.07;;
12784;SDS011;6456;42.680;23.260;2022-11-04T00:06:48;17.17;;;10.20;;
12784;SDS011;6456;42.680;23.260;2022-11-04T00:09:16;19.83;;;10.90;;
12784;SDS011;6456;42.680;23.260;2022-11-04T00:11:44;17.53;;;10.70;;
12784;SDS011;6456;42.680;23.260;2022-11-04T00:14:29;20.60;;;12.00;;
12784;SDS011;6456;42.680;23.260;2022-11-04T00:16:57;17.70;;;10.87;;
12784;SDS011;6456;42.680;23.260;2022-11-04T00:19:42;18.60;;;10.73;;
12784;SDS011;6456;42.680;23.260;2022-11-04T00:22:26;15.47;;;10.40;;
12784;SDS011;6456;42.680;23.260;2022-11-04T00:25:11;16.33;;;10.97;;
12784;SDS011;6456;42.680;23.260;2022-11-04T00:28:00;16.97;;;10.70;;
12784;SDS011;6456;42.680;23.260;2022-11-04T00:30:46;16.77;;;10.67;;
12784;SDS011;6456;42.680;23.260;2022-11-04T00:33:13;19.40;;;10.80;;
12784;SDS011;6456;42.680;23.260;2022-11-04T00:35:53;17.57;;;11.50;;
12784;SDS011;6456;42.680;23.260;2022-11-04T00:38:21;18.97;;;10.67;;
12784;SDS011;6456;42.680;23.260;2022-11-04T00:40:49;15.37;;;10.90;;
12784;SDS011;6456;42.680;23.260;2022-11-04T00:43:16;18.13;;;10.67;;
12784;SDS011;6456;42.680;23.260;2022-11-04T00:45:43;17.03;;;10.80;;
12784;SDS011;6456;42.680;23.260;2022-11-04T00:48:10;17.93;;;10.60;;
12784;SDS011;6456;42.680;23.260;2022-11-04T00:50:37;13.70;;;10.00;;
12784;SDS011;6456;42.680;23.260;2022-11-04T00:53:06;18.30;;;10.80;;
12784;SDS011;6456;42.680;23.260;2022-11-04T00:55:33;18.17;;;10.80;;
12784;SDS011;6456;42.680;23.260;2022-11-04T00:58:00;21.07;;;11.23;;
12784;SDS011;6456;42.680;23.260;2022-11-04T01:00:27;16.80;;;10.60;;
12784;SDS011;6456;42.680;23.260;2022-11-04T01:02:54;16.10;;;11.13;;
12784;SDS011;6456;42.680;23.260;2022-11-04T01:05:24;20.53;;;11.37;;
12784;SDS011;6456;42.680;23.260;2022-11-04T01:07:51;14.77;;;10.30;;
12784;SDS011;6456;42.680;23.260;2022-11-04T01:10:19;17.37;;;11.00;;
12784;SDS011;6456;42.680;23.260;2022-11-04T01:12:46;17.17;;;10.97;;
12784;SDS011;6456;42.680;23.260;2022-11-04T01:15:13;17.17;;;10.73;;
12784;SDS011;6456;42.680;23.260;2022-11-04T01:17:41;17.03;;;10.43;;
12784;SDS011;6456;42.680;23.260;2022-11-04T01:20:08;14.80;;;10.00;;
12784;SDS011;6456;42.680;23.260;2022-11-04T01:22:37;16.83;;;10.17;;
12784;SDS011;6456;42.680;23.260;2022-11-04T01:25:04;14.97;;;10.10;;
12784;SDS011;6456;42.680;23.260;2022-11-04T01:27:34;12.57;;;9.67;;
12784;SDS011;6456;42.680;23.260;2022-11-04T01:30:01;17.93;;;10.83;;
12784;SDS011;6456;42.680;23.260;2022-11-04T01:32:28;15.13;;;10.63;;
12784;SDS011;6456;42.680;23.260;2022-11-04T01:34:55;17.47;;;10.63;;
12784;SDS011;6456;42.680;23.260;2022-11-04T01:37:22;15.10;;;9.90;;
12784;SDS011;6456;42.680;23.260;2022-11-04T01:39:49;18.70;;;11.07;;
12784;SDS011;6456;42.680;23.260;2022-11-04T01:42:16;16.30;;;10.77;;
12784;SDS011;6456;42.680;23.260;2022-11-04T01:44:52;15.43;;;9.93;;
12784;SDS011;6456;42.680;23.260;2022-11-04T01:47:21;17.20;;;11.13;;
12784;SDS011;6456;42.680;23.260;2022-11-04T01:49:52;16.50;;;11.03;;
12784;SDS011;6456;42.680;23.260;2022-11-04T01:52:24;17.57;;;10.33;;
12784;SDS011;6456;42.680;23.260;2022-11-04T01:54:54;18.53;;;10.90;;
12784;SDS011;6456;42.680;23.260;2022-11-04T01:57:27;16.47;;;10.37;;
12784;SDS011;6456;42.680;23.260;2022-11-04T02:00:00;14.40;;;10.90;;
12784;SDS011;6456;42.680;23.260;2022-11-04T02:02:31;13.97;;;10.00;;
12784;SDS011;6456;42.680;23.260;2022-11-04T02:04:58;14.43;;;10.27;;
12784;SDS011;6456;42.680;23.260;2022-11-04T02:07:25;14.07;;;10.60;;
12784;SDS011;6456;42.680;23.260;2022-11-04T02:09:54;16.23;;;10.77;;
12784;SDS011;6456;42.680;23.260;2022-11-04T02:12:21;17.87;;;11.30;;
12784;SDS011;6456;42.680;23.260;2022-11-04T02:15:07;16.17;;;10.37;;
12784;SDS011;6456;42.680;23.260;2022-11-04T02:17:42;16.40;;;10.93;;
12784;SDS011;6456;42.680;23.260;2022-11-04T02:20:34;17.90;;;11.53;;
12784;SDS011;6456;42.680;23.260;2022-11-04T02:26:59;12.63;;;10.53;;
12784;SDS011;6456;42.680;23.260;2022-11-04T02:29:49;19.93;;;11.60;;
12784;SDS011;6456;42.680;23.260;2022-11-04T02:32:26;12.97;;;10.23;;
12784;SDS011;6456;42.680;23.260;2022-11-04T02:35:04;16.67;;;11.43;;
12784;SDS011;6456;42.680;23.260;2022-11-04T02:37:36;14.93;;;11.20;;
12784;SDS011;6456;42.680;23.260;2022-11-04T02:40:17;16.33;;;10.30;;
12784;SDS011;6456;42.680;23.260;2022-11-04T02:42:52;16.57;;;10.70;;
12784;SDS011;6456;42.680;23.260;2022-11-04T02:45:27;18.07;;;10.27;;
12784;SDS011;6456;42.680;23.260;2022-11-04T02:48:02;16.13;;;10.83;;
12784;SDS011;6456;42.680;23.260;2022-11-04T02:50:36;14.17;;;10.87;;
12784;SDS011;6456;42.680;23.260;2022-11-04T02:53:11;16.33;;;10.40;;
12784;SDS011;6456;42.680;23.260;2022-11-04T02:55:44;13.40;;;9.53;;
12784;SDS011;6456;42.680;23.260;2022-11-04T02:58:16;17.70;;;10.43;;
12784;SDS011;6456;42.680;23.260;2022-11-04T03:00:48;16.10;;;10.83;;
12784;SDS011;6456;42.680;23.260;2022-11-04T03:03:18;14.83;;;10.37;;
12784;SDS011;6456;42.680;23.260;2022-11-04T03:05:50;17.70;;;11.23;;
12784;SDS011;6456;42.680;23.260;2022-11-04T03:08:21;17.13;;;10.90;;
12784;SDS011;6456;42.680;23.260;2022-11-04T03:10:53;13.67;;;11.13;;
12784;SDS011;6456;42.680;23.260;2022-11-04T03:13:25;21.10;;;11.43;;
12784;SDS011;6456;42.680;23.260;2022-11-04T03:15:59;17.90;;;11.70;;
12784;SDS011;6456;42.680;23.260;2022-11-04T03:18:31;14.10;;;10.30;;
12784;SDS011;6456;42.680;23.260;2022-11-04T03:21:03;16.27;;;11.47;;
12784;SDS011;6456;42.680;23.260;2022-11-04T03:23:34;16.90;;;11.40;;
12784;SDS011;6456;42.680;23.260;2022-11-04T03:26:06;17.43;;;10.80;;
12784;SDS011;6456;42.680;23.260;2022-11-04T03:28:39;20.77;;;11.10;;
12784;SDS011;6456;42.680;23.260;2022-11-04T03:31:14;16.87;;;11.00;;
12784;SDS011;6456;42.680;23.260;2022-11-04T03:33:48;17.73;;;11.83;;
12784;SDS011;6456;42.680;23.260;2022-11-04T03:36:16;19.53;;;11.17;;
12784;SDS011;6456;42.680;23.260;2022-11-04T03:38:45;22.40;;;12.10;;
12784;SDS011;6456;42.680;23.260;2022-11-04T03:41:13;21.00;;;12.57;;
12784;SDS011;6456;42.680;23.260;2022-11-04T03:43:43;15.43;;;12.77;;
12784;SDS011;6456;42.680;23.260;2022-11-04T03:46:10;17.67;;;12.23;;
12784;SDS011;6456;42.680;23.260;2022-11-04T03:48:39;19.80;;;12.30;;
12784;SDS011;6456;42.680;23.260;2022-11-04T03:51:10;19.83;;;11.43;;
12784;SDS011;6456;42.680;23.260;2022-11-04T03:53:37;18.13;;;11.73;;
12784;SDS011;6456;42.680;23.260;2022-11-04T03:56:09;20.40;;;11.23;;
12784;SDS011;6456;42.680;23.260;2022-11-04T03:58:53;19.37;;;11.63;;
12784;SDS011;6456;42.680;23.260;2022-11-04T04:01:31;15.27;;;11.47;;
12784;SDS011;6456;42.680;23.260;2022-11-04T04:04:07;18.30;;;11.67;;
12784;SDS011;6456;42.680;23.260;2022-11-04T04:06:40;16.80;;;11.77;;
12784;SDS011;6456;42.680;23.260;2022-11-04T04:09:11;16.90;;;11.33;;
12784;SDS011;6456;42.680;23.260;2022-11-04T04:11:43;13.87;;;11.07;;
12784;SDS011;6456;42.680;23.260;2022-11-04T04:14:17;17.77;;;11.70;;
12784;SDS011;6456;42.680;23.260;2022-11-04T04:17:03;17.93;;;11.73;;
12784;SDS011;6456;42.680;23.260;2022-11-04T04:19:39;19.57;;;12.03;;
12784;SDS011;6456;42.680;23.260;2022-11-04T04:22:12;17.63;;;11.60;;
12784;SDS011;6456;42.680;23.260;2022-11-04T04:24:44;16.73;;;12.30;;
12784;SDS011;6456;42.680;23.260;2022-11-04T04:27:31;16.50;;;11.87;;
12784;SDS011;6456;42.680;23.260;2022-11-04T04:30:00;18.27;;;11.57;;
12784;SDS011;6456;42.680;23.260;2022-11-04T04:32:31;15.43;;;11.53;;
12784;SDS011;6456;42.680;23.260;2022-11-04T04:35:05;18.00;;;12.13;;
12784;SDS011;6456;42.680;23.260;2022-11-04T04:37:51;17.20;;;11.63;;
12784;SDS011;6456;42.680;23.260;2022-11-04T04:40:41;20.97;;;12.50;;
12784;SDS011;6456;42.680;23.260;2022-11-04T04:43:27;16.40;;;12.20;;
12784;SDS011;6456;42.680;23.260;2022-11-04T04:46:11;24.70;;;12.23;;
12784;SDS011;6456;42.680;23.260;2022-11-04T04:48:39;19.97;;;12.20;;
12784;SDS011;6456;42.680;23.260;2022-11-04T04:51:07;18.87;;;12.53;;
12784;SDS011;6456;42.680;23.260;2022-11-04T04:53:34;17.57;;;12.50;;
12784;SDS011;6456;42.680;23.260;2022-11-04T04:56:01;17.67;;;12.33;;
12784;SDS011;6456;42.680;23.260;2022-11-04T04:58:27;20.60;;;13.77;;
12784;SDS011;6456;42.680;23.260;2022-11-04T05:00:54;18.33;;;12.30;;
12784;SDS011;6456;42.680;23.260;2022-11-04T05:03:23;13.37;;;11.53;;
12784;SDS011;6456;42.680;23.260;2022-11-04T05:05:49;19.80;;;13.17;;
12784;SDS011;6456;42.680;23.260;2022-11-04T05:08:18;18.10;;;12.83;;
12784;SDS011;6456;42.680;23.260;2022-11-04T05:10:45;23.17;;;13.77;;
12784;SDS011;6456;42.680;23.260;2022-11-04T05:13:11;20.33;;;13.67;;
12784;SDS011;6456;42.680;23.260;2022-11-04T05:15:54;28.90;;;14.10;;
12784;SDS011;6456;42.680;23.260;2022-11-04T05:18:21;18.17;;;13.13;;
12784;SDS011;6456;42.680;23.260;2022-11-04T05:20:48;21.43;;;12.83;;
12784;SDS011;6456;42.680;23.260;2022-11-04T05:23:15;19.03;;;12.83;;
12784;SDS011;6456;42.680;23.260;2022-11-04T05:25:43;17.63;;;13.20;;
12784;SDS011;6456;42.680;23.260;2022-11-04T05:28:10;21.47;;;14.03;;
12784;SDS011;6456;42.680;23.260;2022-11-04T05:30:37;26.03;;;14.40;;
12784;SDS011;6456;42.680;23.260;2022-11-04T05:33:05;23.93;;;14.07;;
12784;SDS011;6456;42.680;23.260;2022-11-04T05:35:32;21.93;;;13.63;;
12784;SDS011;6456;42.680;23.260;2022-11-04T05:37:59;24.97;;;14.53;;
12784;SDS011;6456;42.680;23.260;2022-11-04T05:40:26;18.37;;;14.07;;
12784;SDS011;6456;42.680;23.260;2022-11-04T05:42:57;20.10;;;13.57;;
12784;SDS011;6456;42.680;23.260;2022-11-04T05:45:25;19.20;;;13.80;;
12784;SDS011;6456;42.680;23.260;2022-11-04T05:47:58;25.90;;;14.83;;
12784;SDS011;6456;42.680;23.260;2022-11-04T05:50:26;22.00;;;15.00;;
12784;SDS011;6456;42.680;23.260;2022-11-04T05:52:55;24.63;;;16.47;;
12784;SDS011;6456;42.680;23.260;2022-11-04T05:55:22;26.23;;;16.03;;
12784;SDS011;6456;42.680;23.260;2022-11-04T05:57:50;25.50;;;15.20;;
12784;SDS011;6456;42.680;23.260;2022-11-04T06:00:18;26.43;;;15.03;;
12784;SDS011;6456;42.680;23.260;2022-11-04T06:02:45;24.40;;;15.20;;
12784;SDS011;6456;42.680;23.260;2022-11-04T06:05:12;24.43;;;16.13;;
12784;SDS011;6456;42.680;23.260;2022-11-04T06:07:39;24.23;;;15.97;;
12784;SDS011;6456;42.680;23.260;2022-11-04T06:10:06;27.93;;;15.97;;
12784;SDS011;6456;42.680;23.260;2022-11-04T06:12:33;25.77;;;15.93;;
12784;SDS011;6456;42.680;23.260;2022-11-04T06:15:00;25.30;;;16.60;;
12784;SDS011;6456;42.680;23.260;2022-11-04T06:17:29;28.33;;;15.57;;
12784;SDS011;6456;42.680;23.260;2022-11-04T06:19:56;23.80;;;16.53;;
12784;SDS011;6456;42.680;23.260;2022-11-04T06:22:23;28.50;;;16.60;;
12784;SDS011;6456;42.680;23.260;2022-11-04T06:24:49;28.03;;;17.50;;
12784;SDS011;6456;42.680;23.260;2022-11-04T06:27:16;26.30;;;18.20;;
12784;SDS011;6456;42.680;23.260;2022-11-04T06:29:43;27.90;;;21.03;;
12784;SDS011;6456;42.680;23.260;2022-11-04T06:32:12;25.93;;;20.53;;
12784;SDS011;6456;42.680;23.260;2022-11-04T06:34:41;31.00;;;22.50;;
12784;SDS011;6456;42.680;23.260;2022-11-04T06:37:20;36.13;;;24.43;;
12784;SDS011;6456;42.680;23.260;2022-11-04T06:39:46;32.43;;;22.20;;
12784;SDS011;6456;42.680;23.260;2022-11-04T06:42:13;35.83;;;25.27;;
12784;SDS011;6456;42.680;23.260;2022-11-04T06:44:40;38.27;;;27.50;;
12784;SDS011;6456;42.680;23.260;2022-11-04T06:47:07;40.87;;;28.93;;
12784;SDS011;6456;42.680;23.260;2022-11-04T06:49:35;43.80;;;27.87;;
12784;SDS011;6456;42.680;23.260;2022-11-04T06:52:03;40.20;;;28.23;;
12784;SDS011;6456;42.680;23.260;2022-11-04T06:54:30;48.13;;;30.03;;
12784;SDS011;6456;42.680;23.260;2022-11-04T06:56:57;49.17;;;29.80;;
12784;SDS011;6456;42.680;23.260;2022-11-04T06:59:24;32.13;;;23.00;;
12784;SDS011;6456;42.680;23.260;2022-11-04T07:01:51;32.07;;;23.40;;
12784;SDS011;6456;42.680;23.260;2022-11-04T07:04:17;35.53;;;24.30;;
12784;SDS011;6456;42.680;23.260;2022-11-04T07:06:44;36.53;;;24.63;;
12784;SDS011;6456;42.680;23.260;2022-11-04T07:09:13;33.00;;;25.77;;
12784;SDS011;6456;42.680;23.260;2022-11-04T07:11:41;38.67;;;26.90;;
12784;SDS011;6456;42.680;23.260;2022-11-04T07:14:09;32.03;;;25.63;;
12784;SDS011;6456;42.680;23.260;2022-11-04T07:16:36;37.03;;;24.50;;
12784;SDS011;6456;42.680;23.260;2022-11-04T07:19:03;32.57;;;22.30;;
12784;SDS011;6456;42.680;23.260;2022-11-04T07:21:31;33.47;;;21.03;;
12784;SDS011;6456;42.680;23.260;2022-11-04T07:24:00;31.67;;;22.13;;
12784;SDS011;6456;42.680;23.260;2022-11-04T07:26:29;27.40;;;19.90;;
12784;SDS011;6456;42.680;23.260;2022-11-04T07:28:56;26.87;;;20.13;;
12784;SDS011;6456;42.680;23.260;2022-11-04T07:31:25;26.33;;;20.33;;
12784;SDS011;6456;42.680;23.260;2022-11-04T07:33:52;30.57;;;19.27;;
12784;SDS011;6456;42.680;23.260;2022-11-04T07:36:19;28.83;;;19.80;;
12784;SDS011;6456;42.680;23.260;2022-11-04T07:38:46;30.13;;;21.17;;
12784;SDS011;6456;42.680;23.260;2022-11-04T07:41:13;31.60;;;20.67;;
12784;SDS011;6456;42.680;23.260;2022-11-04T07:43:46;33.37;;;19.83;;
12784;SDS011;6456;42.680;23.260;2022-11-04T07:46:13;31.30;;;21.80;;
12784;SDS011;6456;42.680;23.260;2022-11-04T07:48:40;33.80;;;21.73;;
12784;SDS011;6456;42.680;23.260;2022-11-04T07:51:09;30.03;;;22.27;;
12784;SDS011;6456;42.680;23.260;2022-11-04T07:53:37;28.30;;;21.13;;
12784;SDS011;6456;42.680;23.260;2022-11-04T07:56:05;33.60;;;22.97;;
12784;SDS011;6456;42.680;23.260;2022-11-04T07:58:33;31.77;;;22.40;;
12784;SDS011;6456;42.680;23.260;2022-11-04T08:01:05;32.53;;;22.57;;
12784;SDS011;6456;42.680;23.260;2022-11-04T08:03:41;36.47;;;22.97;;
12784;SDS011;6456;42.680;23.260;2022-11-04T08:06:10;27.57;;;22.60;;
12784;SDS011;6456;42.680;23.260;2022-11-04T08:08:39;32.53;;;21.67;;
12784;SDS011;6456;42.680;23.260;2022-11-04T08:11:08;34.30;;;21.70;;
12784;SDS011;6456;42.680;23.260;2022-11-04T08:13:36;34.90;;;22.77;;
12784;SDS011;6456;42.680;23.260;2022-11-04T08:16:07;31.30;;;21.57;;
12784;SDS011;6456;42.680;23.260;2022-11-04T08:18:37;31.70;;;20.83;;
12784;SDS011;6456;42.680;23.260;2022-11-04T08:21:05;35.20;;;22.47;;
12784;SDS011;6456;42.680;23.260;2022-11-04T08:23:33;30.53;;;22.07;;
12784;SDS011;6456;42.680;23.260;2022-11-04T08:26:05;32.80;;;22.17;;
12784;SDS011;6456;42.680;23.260;2022-11-04T08:28:34;36.00;;;22.57;;
12784;SDS011;6456;42.680;23.260;2022-11-04T08:31:02;28.07;;;21.13;;
12784;SDS011;6456;42.680;23.260;2022-11-04T08:33:32;27.63;;;20.97;;
12784;SDS011;6456;42.680;23.260;2022-11-04T08:36:04;30.47;;;22.13;;
12784;SDS011;6456;42.680;23.260;2022-11-04T08:38:33;29.03;;;21.47;;
12784;SDS011;6456;42.680;23.260;2022-11-04T08:41:01;32.60;;;21.80;;
12784;SDS011;6456;42.680;23.260;2022-11-04T08:43:30;29.07;;;21.83;;
12784;SDS011;6456;42.680;23.260;2022-11-04T08:45:58;31.60;;;20.83;;
12784;SDS011;6456;42.680;23.260;2022-11-04T08:48:25;31.40;;;22.30;;
12784;SDS011;6456;42.680;23.260;2022-11-04T08:50:54;28.40;;;21.33;;
12784;SDS011;6456;42.680;23.260;2022-11-04T08:53:23;28.60;;;21.83;;
12784;SDS011;6456;42.680;23.260;2022-11-04T08:55:50;30.00;;;21.20;;
12784;SDS011;6456;42.680;23.260;2022-11-04T08:58:17;30.97;;;21.17;;
12784;SDS011;6456;42.680;23.260;2022-11-04T09:00:44;30.03;;;21.07;;
12784;SDS011;6456;42.680;23.260;2022-11-04T09:03:11;27.53;;;20.63;;
12784;SDS011;6456;42.680;23.260;2022-11-04T09:05:38;30.47;;;22.43;;
12784;SDS011;6456;42.680;23.260;2022-11-04T09:08:10;27.10;;;20.83;;
12784;SDS011;6456;42.680;23.260;2022-11-04T09:10:39;32.90;;;22.03;;
12784;SDS011;6456;42.680;23.260;2022-11-04T09:13:07;34.40;;;21.80;;
12784;SDS011;6456;42.680;23.260;2022-11-04T09:15:34;34.30;;;21.63;;
12784;SDS011;6456;42.680;23.260;2022-11-04T09:18:01;33.20;;;22.50;;
12784;SDS011;6456;42.680;23.260;2022-11-04T09:20:28;31.13;;;21.87;;
12784;SDS011;6456;42.680;23.260;2022-11-04T09:22:56;31.87;;;21.40;;
12784;SDS011;6456;42.680;23.260;2022-11-04T09:25:24;29.77;;;21.10;;
12784;SDS011;6456;42.680;23.260;2022-11-04T09:27:51;30.80;;;20.97;;
12784;SDS011;6456;42.680;23.260;2022-11-04T09:30:18;29.50;;;19.77;;
12784;SDS011;6456;42.680;23.260;2022-11-04T09:32:45;28.33;;;20.13;;
12784;SDS011;6456;42.680;23.260;2022-11-04T09:35:12;26.23;;;19.30;;
12784;SDS011;6456;42.680;23.260;2022-11-04T09:37:40;36.17;;;20.60;;
12784;SDS011;6456;42.680;23.260;2022-11-04T09:40:10;32.50;;;20.57;;
12784;SDS011;6456;42.680;23.260;2022-11-04T09:42:44;27.53;;;19.30;;
12784;SDS011;6456;42.680;23.260;2022-11-04T09:45:20;29.97;;;20.47;;
12784;SDS011;6456;42.680;23.260;2022-11-04T09:47:52;27.10;;;18.60;;
12784;SDS011;6456;42.680;23.260;2022-11-04T09:50:24;30.27;;;19.77;;
12784;SDS011;6456;42.680;23.260;2022-11-04T09:52:54;25.23;;;17.40;;
12784;SDS011;6456;42.680;23.260;2022-11-04T09:55:25;31.30;;;19.90;;
12784;SDS011;6456;42.680;23.260;2022-11-04T09:57:59;29.77;;;19.93;;
12784;SDS011;6456;42.680;23.260;2022-11-04T10:00:26;31.23;;;17.47;;
12784;SDS011;6456;42.680;23.260;2022-11-04T10:03:06;24.50;;;19.20;;
12784;SDS011;6456;42.680;23.260;2022-11-04T10:05:49;22.77;;;17.87;;
12784;SDS011;6456;42.680;23.260;2022-11-04T10:08:44;27.80;;;18.57;;
12784;SDS011;6456;42.680;23.260;2022-11-04T10:11:21;27.10;;;17.63;;
12784;SDS011;6456;42.680;23.260;2022-11-04T10:14:03;21.50;;;17.00;;
12784;SDS011;6456;42.680;23.260;2022-11-04T10:16:43;32.40;;;17.50;;
12784;SDS011;6456;42.680;23.260;2022-11-04T10:19:28;28.03;;;19.23;;
12784;SDS011;6456;42.680;23.260;2022-11-04T10:22:06;29.90;;;18.57;;
12784;SDS011;6456;42.680;23.260;2022-11-04T10:24:41;24.23;;;16.83;;
12784;SDS011;6456;42.680;23.260;2022-11-04T10:27:15;31.03;;;18.00;;
12784;SDS011;6456;42.680;23.260;2022-11-04T10:29:47;23.10;;;16.40;;
12784;SDS011;6456;42.680;23.260;2022-11-04T10:32:18;25.17;;;17.90;;
12784;SDS011;6456;42.680;23.260;2022-11-04T10:34:51;25.60;;;17.17;;
12784;SDS011;6456;42.680;23.260;2022-11-04T10:37:22;31.33;;;20.33;;
12784;SDS011;6456;42.680;23.260;2022-11-04T10:39:50;23.70;;;17.73;;
12784;SDS011;6456;42.680;23.260;2022-11-04T10:42:22;29.37;;;18.17;;
12784;SDS011;6456;42.680;23.260;2022-11-04T10:44:50;24.53;;;17.20;;
12784;SDS011;6456;42.680;23.260;2022-11-04T10:47:21;24.73;;;16.47;;
12784;SDS011;6456;42.680;23.260;2022-11-04T10:50:02;29.53;;;16.93;;
12784;SDS011;6456;42.680;23.260;2022-11-04T10:52:53;27.03;;;17.43;;
12784;SDS011;6456;42.680;23.260;2022-11-04T10:55:30;26.73;;;16.97;;
12784;SDS011;6456;42.680;23.260;2022-11-04T10:58:07;24.93;;;17.50;;
12784;SDS011;6456;42.680;23.260;2022-11-04T11:00:41;22.13;;;16.30;;
12784;SDS011;6456;42.680;23.260;2022-11-04T11:03:21;22.73;;;16.37;;
12784;SDS011;6456;42.680;23.260;2022-11-04T11:06:09;26.03;;;16.97;;
12784;SDS011;6456;42.680;23.260;2022-11-04T11:08:38;24.63;;;16.43;;
12784;SDS011;6456;42.680;23.260;2022-11-04T11:11:07;25.60;;;15.00;;
12784;SDS011;6456;42.680;23.260;2022-11-04T11:13:36;22.53;;;15.90;;
12784;SDS011;6456;42.680;23.260;2022-11-04T11:16:07;23.83;;;15.53;;
12784;SDS011;6456;42.680;23.260;2022-11-04T11:18:37;23.37;;;14.87;;
12784;SDS011;6456;42.680;23.260;2022-11-04T11:21:07;21.53;;;15.03;;
12784;SDS011;6456;42.680;23.260;2022-11-04T11:23:37;22.57;;;14.40;;
12784;SDS011;6456;42.680;23.260;2022-11-04T11:26:10;25.83;;;13.53;;
12784;SDS011;6456;42.680;23.260;2022-11-04T11:28:39;23.90;;;14.00;;
12784;SDS011;6456;42.680;23.260;2022-11-04T11:31:14;24.30;;;12.80;;
12784;SDS011;6456;42.680;23.260;2022-11-04T11:33:48;17.70;;;12.57;;
12784;SDS011;6456;42.680;23.260;2022-11-04T11:36:22;21.50;;;12.23;;
12784;SDS011;6456;42.680;23.260;2022-11-04T11:38:56;19.80;;;13.60;;
12784;SDS011;6456;42.680;23.260;2022-11-04T11:41:28;18.73;;;11.73;;
12784;SDS011;6456;42.680;23.260;2022-11-04T11:44:03;21.67;;;12.50;;
12784;SDS011;6456;42.680;23.260;2022-11-04T11:46:48;18.37;;;12.60;;
12784;SDS011;6456;42.680;23.260;2022-11-04T11:49:22;22.57;;;12.13;;
12784;SDS011;6456;42.680;23.260;2022-11-04T11:51:51;19.47;;;11.83;;
12784;SDS011;6456;42.680;23.260;2022-11-04T11:54:20;25.77;;;13.40;;
12784;SDS011;6456;42.680;23.260;2022-11-04T11:56:53;26.47;;;14.10;;
12784;SDS011;6456;42.680;23.260;2022-11-04T11:59:29;19.40;;;13.20;;
12784;SDS011;6456;42.680;23.260;2022-11-04T12:02:13;24.03;;;13.60;;
12784;SDS011;6456;42.680;23.260;2022-11-04T12:04:47;22.93;;;13.60;;
12784;SDS011;6456;42.680;23.260;2022-11-04T12:07:18;24.40;;;13.33;;
12784;SDS011;6456;42.680;23.260;2022-11-04T12:09:55;19.60;;;13.27;;
12784;SDS011;6456;42.680;23.260;2022-11-04T12:12:40;20.23;;;12.10;;
12784;SDS011;6456;42.680;23.260;2022-11-04T12:15:26;21.10;;;11.90;;
12784;SDS011;6456;42.680;23.260;2022-11-04T12:18:06;23.03;;;12.77;;
12784;SDS011;6456;42.680;23.260;2022-11-04T12:20:47;19.63;;;11.87;;
12784;SDS011;6456;42.680;23.260;2022-11-04T12:23:21;23.00;;;12.40;;
12784;SDS011;6456;42.680;23.260;2022-11-04T12:26:00;17.60;;;11.77;;
12784;SDS011;6456;42.680;23.260;2022-11-04T12:28:38;18.97;;;12.43;;
12784;SDS011;6456;42.680;23.260;2022-11-04T12:31:20;19.97;;;11.93;;
12784;SDS011;6456;42.680;23.260;2022-11-04T12:34:01;20.97;;;11.03;;
12784;SDS011;6456;42.680;23.260;2022-11-04T12:36:41;19.53;;;11.00;;
12784;SDS011;6456;42.680;23.260;2022-11-04T12:39:25;20.77;;;11.40;;
12784;SDS011;6456;42.680;23.260;2022-11-04T12:42:08;19.97;;;10.80;;
12784;SDS011;6456;42.680;23.260;2022-11-04T12:44:44;18.10;;;10.70;;
12784;SDS011;6456;42.680;23.260;2022-11-04T12:47:20;15.77;;;10.53;;
12784;SDS011;6456;42.680;23.260;2022-11-04T12:50:17;20.20;;;10.60;;
12784;SDS011;6456;42.680;23.260;2022-11-04T12:53:17;15.63;;;9.70;;
12784;SDS011;6456;42.680;23.260;2022-11-04T12:55:57;14.93;;;9.20;;
12784;SDS011;6456;42.680;23.260;2022-11-04T12:58:36;18.07;;;9.97;;
12784;SDS011;6456;42.680;23.260;2022-11-04T13:01:11;15.57;;;10.70;;
12784;SDS011;6456;42.680;23.260;2022-11-04T13:03:42;15.70;;;10.63;;
12784;SDS011;6456;42.680;23.260;2022-11-04T13:06:16;16.13;;;10.23;;
12784;SDS011;6456;42.680;23.260;2022-11-04T13:08:48;14.87;;;9.87;;
12784;SDS011;6456;42.680;23.260;2022-11-04T13:11:19;13.30;;;9.10;;
12784;SDS011;6456;42.680;23.260;2022-11-04T13:13:52;19.00;;;10.07;;
12784;SDS011;6456;42.680;23.260;2022-11-04T13:16:26;22.47;;;11.17;;
12784;SDS011;6456;42.680;23.260;2022-11-04T13:18:55;21.10;;;10.80;;
12784;SDS011;6456;42.680;23.260;2022-11-04T13:21:26;16.43;;;10.13;;
12784;SDS011;6456;42.680;23.260;2022-11-04T13:23:55;13.90;;;10.23;;
12784;SDS011;6456;42.680;23.260;2022-11-04T13:26:28;21.07;;;11.13;;
12784;SDS011;6456;42.680;23.260;2022-11-04T13:28:58;15.87;;;10.00;;
12784;SDS011;6456;42.680;23.260;2022-11-04T13:31:33;18.50;;;11.60;;
12784;SDS011;6456;42.680;23.260;2022-11-04T13:34:11;18.00;;;11.47;;
12784;SDS011;6456;42.680;23.260;2022-11-04T13:36:50;15.23;;;10.13;;
12784;SDS011;6456;42.680;23.260;2022-11-04T13:39:32;15.40;;;10.67;;
12784;SDS011;6456;42.680;23.260;2022-11-04T13:44:54;22.80;;;10.87;;
12784;SDS011;6456;42.680;23.260;2022-11-04T13:47:24;20.27;;;11.30;;
12784;SDS011;6456;42.680;23.260;2022-11-04T13:49:54;21.80;;;10.70;;
12784;SDS011;6456;42.680;23.260;2022-11-04T13:52:23;17.07;;;10.97;;
12784;SDS011;6456;42.680;23.260;2022-11-04T13:54:54;23.20;;;11.37;;
12784;SDS011;6456;42.680;23.260;2022-11-04T13:57:24;20.73;;;10.83;;
12784;SDS011;6456;42.680;23.260;2022-11-04T14:02:46;21.10;;;10.77;;
12784;SDS011;6456;42.680;23.260;2022-11-04T14:08:20;13.17;;;10.70;;
12784;SDS011;6456;42.680;23.260;2022-11-04T14:11:06;22.13;;;11.00;;
12784;SDS011;6456;42.680;23.260;2022-11-04T14:16:43;19.97;;;10.70;;
12784;SDS011;6456;42.680;23.260;2022-11-04T14:22:14;19.83;;;11.40;;
12784;SDS011;6456;42.680;23.260;2022-11-04T14:24:44;22.30;;;11.20;;
12784;SDS011;6456;42.680;23.260;2022-11-04T14:27:23;22.77;;;12.30;;
12784;SDS011;6456;42.680;23.260;2022-11-04T14:29:53;18.27;;;11.83;;
12784;SDS011;6456;42.680;23.260;2022-11-04T14:32:22;19.20;;;11.43;;
12784;SDS011;6456;42.680;23.260;2022-11-04T14:34:59;19.37;;;11.17;;
12784;SDS011;6456;42.680;23.260;2022-11-04T14:37:29;22.63;;;11.93;;
12784;SDS011;6456;42.680;23.260;2022-11-04T14:40:00;18.43;;;11.33;;
12784;SDS011;6456;42.680;23.260;2022-11-04T14:42:43;19.40;;;10.83;;
12784;SDS011;6456;42.680;23.260;2022-11-04T14:45:15;17.30;;;10.97;;
12784;SDS011;6456;42.680;23.260;2022-11-04T14:47:49;20.93;;;11.73;;
12784;SDS011;6456;42.680;23.260;2022-11-04T14:50:20;20.97;;;11.50;;
12784;SDS011;6456;42.680;23.260;2022-11-04T14:52:51;24.30;;;11.37;;
12784;SDS011;6456;42.680;23.260;2022-11-04T14:55:23;19.73;;;12.00;;
12784;SDS011;6456;42.680;23.260;2022-11-04T14:57:54;27.37;;;16.50;;
12784;SDS011;6456;42.680;23.260;2022-11-04T15:00:26;22.67;;;13.13;;
12784;SDS011;6456;42.680;23.260;2022-11-04T15:03:11;20.73;;;12.80;;
12784;SDS011;6456;42.680;23.260;2022-11-04T15:05:45;20.37;;;12.83;;
12784;SDS011;6456;42.680;23.260;2022-11-04T15:08:26;25.37;;;14.00;;